Aérodrome :
LOGIN :

S'inscrire | Disclaimer

   EN    FR    IT 

 










Légende :    VFR   VFR Marginal   IFR   IFR Intensif   IFR Très Intensif
Visi : 
Plafond : 
>= 8 km
>= 3000ft
5 à 8 km
1000 à 3000 ft
1500m à 5 km
500 à 1000 ft
800 à 1500m
200 à 500 ft
< 800m
< 200 ft
Symboles :   Orages  Brouillard  Fortes neiges  Fortes précipitations  Vent > 20 kt
SIGMETs :   Divers  Orages  Givrage  Turbulence  Onde Orograph.  Cendres Volcan.







- Altitude de l'aérodrome : 302 ft
- Code IATA : MAH


LEMH - Menorca

DERNIER METAR :
  • 130430Z AUTO 13003KT 0250 0150N R01/0700U R19/0125N -RA FG VV002 16/15 Q1021

METARs EXPIRÉS :
  • 130400Z AUTO 13003KT 0200 0100N R01/0600N R19/0075N -RA FG FEW003/// 16/15 Q1021
  • 130330Z AUTO 13002KT 0200 0150N R01/0650N R19/0125N -RA FG VV002 15/15 Q1020
  • 130300Z AUTO 12003KT 0200 0150N R01/0600N R19/0100N FG VV002 16/15 Q1020
  • 130230Z AUTO 12003KT 0400 0200S R01/0550N R19/0450D FG VV002 16/15 Q1020
  • 130200Z AUTO 12003KT 0250 R01/0650D R19/0225N FG VV/// 16/15 Q1020

TAF TAF LEMH
Valide du 13 à 03h jusqu'au 14 à 03h UTC


130200Z 1303/1403 VRB03KT 9999 SCT012 TX21/1312Z TN14/1305Z
PROB40
TEMPO 1303/1310 2000 BR BKN004
PROB30 1306/1310 0800 BCFG BKN002
PROB40
TEMPO 1318/1403 2000 BR BKN005
Pas de NOTAMs connus pour ce terrain.



MET'MAP, la Météo Aéronautique d'un coup d'oeil ! - Copyright ORBIFLY Décembre 2007 - Disclaimer

ORBIFLY MET'MAP TEAM :

Programmation & Développement : Alexandra Zaïnal
Conception & Développement : Baudouin d'Aumeries
Co-Programmation & Développement : Marc-Olivier Méhu
Soutien technique & logistique : Manuel Goepfert

Contact : metmap@orbifly.com




SOURCES & CREDITS :

   NOAA